Startpagina
METAR-TAF:

METAR-TAF

Vliegvelden :

Productieplatform

P11-b, Nederland

breedte: 52-21-36N, lengte: 3-20-30E, hoogte: 24 m

Actueel weer

Dit bericht is 44 minuten geleden gemaakt, om 04:25 UTC
Wind 4 kt uit het noordnoordwesten, variërend tussen het zuidwesten en het noordnoordoosten
Temperatuur 5°C
Vochtigheid 60%
Druk 1028 hPa
Zicht 10 km of meer
Geheel bewolkt op 3500 ft

METAR: EHPG 070425Z AUTO 33004KT 230V020 9999 OVC035 05/M02 Q1028

Tijdstip: 06:09 (05:09 UTC)


TAF: ontbreekt

Waarnemingen en weersverwachtingen van meer dan 4000 vliegvelden (METAR en TAF).

De beschikbare stations zijn de gele en rode punten op de kaart.

Ga met uw muis naar het station om de naam te zien.

Klik dan om waarnemingen en weersverwachtingen te zien.

kaart wijzigen: klik op de groene knoppen met een zwart kruis om in te zoomen, op de groene knop met een streepje om uit te zoomen of op de groene pijlen voor aangrenzende kaarten.


METAR-TAF: